createdAt,value
2019-01-27T00:00:45.266Z,21.91
2019-01-27T00:01:54.797Z,21.94
2019-01-27T00:03:04.036Z,21.86
2019-01-27T00:04:13.281Z,22.02
2019-01-27T00:05:24.203Z,21.82
2019-01-27T00:06:33.823Z,21.91
2019-01-27T00:07:43.313Z,21.9
2019-01-27T00:08:52.807Z,21.88
2019-01-27T00:10:02.873Z,21.91
2019-01-27T00:11:12.391Z,21.9
2019-01-27T00:12:21.626Z,21.86
2019-01-27T00:13:30.650Z,21.74
2019-01-27T00:14:39.663Z,21.96
2019-01-27T00:15:48.928Z,21.86
2019-01-27T00:16:58.188Z,21.8
2019-01-27T00:18:07.424Z,21.79
2019-01-27T00:19:16.187Z,21.79
2019-01-27T00:20:25.440Z,21.86
2019-01-27T00:21:34.987Z,21.83
2019-01-27T00:22:44.021Z,21.74
2019-01-27T00:23:53.521Z,21.68
2019-01-27T00:25:03.082Z,21.72
2019-01-27T00:26:12.593Z,21.74
2019-01-27T00:27:21.585Z,21.74
2019-01-27T00:28:30.830Z,21.59
2019-01-27T00:29:40.135Z,21.69
2019-01-27T00:30:49.121Z,21.69
2019-01-27T00:31:58.952Z,21.64
2019-01-27T00:33:08.736Z,21.65
2019-01-27T00:34:17.963Z,21.61
2019-01-27T00:35:27.375Z,21.62
2019-01-27T00:36:36.447Z,21.59
2019-01-27T00:37:45.988Z,21.62
2019-01-27T00:38:55.330Z,21.61
2019-01-27T00:40:04.703Z,21.65
2019-01-27T00:41:14.276Z,21.58
2019-01-27T00:42:23.529Z,21.58
2019-01-27T00:43:33.290Z,21.54
2019-01-27T00:44:42.559Z,21.54
2019-01-27T00:45:52.109Z,21.5
2019-01-27T00:47:01.214Z,21.54
2019-01-27T00:48:10.566Z,21.59
2019-01-27T00:49:19.822Z,21.53
2019-01-27T00:50:29.571Z,21.56
2019-01-27T00:51:39.415Z,21.53
2019-01-27T00:52:48.745Z,21.54
2019-01-27T00:53:58.363Z,21.5
2019-01-27T00:55:07.846Z,21.49
2019-01-27T00:56:17.461Z,21.4
2019-01-27T00:57:26.910Z,21.4
2019-01-27T00:58:36.226Z,21.44
2019-01-27T00:59:45.334Z,21.37
2019-01-27T01:00:54.423Z,21.43
2019-01-27T01:02:03.997Z,21.5
2019-01-27T01:03:13.361Z,21.44
2019-01-27T01:04:22.763Z,21.47
2019-01-27T01:05:32.191Z,21.43
2019-01-27T01:06:41.809Z,21.5
2019-01-27T01:07:52.670Z,21.46
2019-01-27T01:09:02.116Z,21.34
2019-01-27T01:10:11.839Z,21.34
2019-01-27T01:11:21.200Z,21.4
2019-01-27T01:12:30.580Z,21.34
2019-01-27T01:13:39.930Z,21.37
2019-01-27T01:14:49.354Z,21.32
2019-01-27T01:15:58.702Z,21.35
2019-01-27T01:17:07.810Z,21.34
2019-01-27T01:18:16.841Z,21.35
2019-01-27T01:19:25.937Z,21.37
2019-01-27T01:20:35.539Z,21.32
2019-01-27T01:21:44.864Z,21.34
2019-01-27T01:22:54.293Z,21.35
2019-01-27T01:24:03.349Z,21.27
2019-01-27T01:25:12.492Z,21.28
2019-01-27T01:26:21.500Z,21.28
2019-01-27T01:27:31.014Z,21.34
2019-01-27T01:28:40.336Z,21.25
2019-01-27T01:29:49.925Z,21.27
2019-01-27T01:30:58.687Z,21.32
2019-01-27T01:32:07.565Z,21.29
2019-01-27T01:33:16.759Z,21.22
2019-01-27T01:34:26.693Z,21.31
2019-01-27T01:35:36.055Z,21.27
2019-01-27T01:36:45.201Z,21.22
2019-01-27T01:37:54.532Z,21.24
2019-01-27T01:39:03.827Z,21.29
2019-01-27T01:40:13.466Z,21.24
2019-01-27T01:41:22.492Z,21.19
2019-01-27T01:42:31.538Z,21.21
2019-01-27T01:43:40.334Z,21.21
2019-01-27T01:44:49.424Z,21.28
2019-01-27T01:45:58.682Z,21.27
2019-01-27T01:47:07.872Z,21.24
2019-01-27T01:48:17.399Z,21.25
2019-01-27T01:49:27.033Z,21.25
2019-01-27T01:50:35.848Z,21.27
2019-01-27T01:51:45.174Z,21.13
2019-01-27T01:52:54.263Z,21.17
2019-01-27T01:54:03.138Z,21.14
2019-01-27T01:55:12.767Z,21.14
2019-01-27T01:56:21.913Z,21.19
2019-01-27T01:57:31.392Z,21.13
2019-01-27T01:58:40.517Z,21.14
2019-01-27T01:59:49.598Z,21.14
2019-01-27T02:00:59.224Z,21.13
2019-01-27T02:02:09.073Z,21.13
2019-01-27T02:03:18.150Z,21.13
2019-01-27T02:04:27.722Z,21.12
2019-01-27T02:05:36.701Z,21.07
2019-01-27T02:06:46.277Z,21.1
2019-01-27T02:07:55.320Z,21.12
2019-01-27T02:09:04.777Z,21.1
2019-01-27T02:10:14.167Z,21.01
2019-01-27T02:11:23.811Z,21.13
2019-01-27T02:12:33.471Z,21.13
2019-01-27T02:13:42.753Z,21.07
2019-01-27T02:14:51.603Z,21.03
2019-01-27T02:16:00.909Z,21.04
2019-01-27T02:17:10.147Z,21.12
2019-01-27T02:18:19.994Z,21.1
2019-01-27T02:19:29.088Z,21.1
2019-01-27T02:20:38.504Z,21.06
2019-01-27T02:21:47.764Z,21.01
2019-01-27T02:22:56.548Z,21.06
2019-01-27T02:24:05.979Z,21.06
2019-01-27T02:25:16.049Z,21.01
2019-01-27T02:26:25.347Z,21.07
2019-01-27T02:27:34.593Z,20.97
2019-01-27T02:28:43.667Z,21.04
2019-01-27T02:29:53.007Z,21.03
2019-01-27T02:31:02.557Z,20.98
2019-01-27T02:32:11.868Z,20.99
2019-01-27T02:33:20.699Z,20.97
2019-01-27T02:34:30.266Z,20.98
2019-01-27T02:35:39.950Z,20.95
2019-01-27T02:36:49.750Z,20.99
2019-01-27T02:37:58.859Z,20.99
2019-01-27T02:39:08.276Z,20.94
2019-01-27T02:40:17.707Z,20.95
2019-01-27T02:41:26.785Z,20.98
2019-01-27T02:42:35.821Z,20.97
2019-01-27T02:43:45.175Z,20.98
2019-01-27T02:44:54.829Z,20.98
2019-01-27T02:46:04.714Z,20.98
2019-01-27T02:47:13.812Z,20.95
2019-01-27T02:48:23.035Z,20.94
2019-01-27T02:49:32.376Z,20.92
2019-01-27T02:50:42.282Z,20.98
2019-01-27T02:51:51.915Z,20.95
2019-01-27T02:53:01.211Z,20.94
2019-01-27T02:54:10.773Z,20.92
2019-01-27T02:55:19.860Z,20.94
2019-01-27T02:56:29.200Z,20.94
2019-01-27T02:57:38.509Z,20.88
2019-01-27T02:58:47.591Z,20.92
2019-01-27T02:59:57.218Z,20.87
2019-01-27T03:01:07.348Z,20.92
2019-01-27T03:02:17.018Z,20.92
2019-01-27T03:03:26.443Z,20.85
2019-01-27T03:04:36.255Z,20.82
2019-01-27T03:05:45.293Z,20.91
2019-01-27T03:06:54.670Z,20.84
2019-01-27T03:08:04.255Z,20.82
2019-01-27T03:09:13.528Z,20.84
2019-01-27T03:10:22.363Z,20.88
2019-01-27T03:11:31.442Z,20.88
2019-01-27T03:12:40.761Z,20.87
2019-01-27T03:13:49.650Z,20.87
2019-01-27T03:14:59.113Z,20.88
2019-01-27T03:16:08.393Z,20.87
2019-01-27T03:17:17.950Z,20.79
2019-01-27T03:18:27.241Z,20.84
2019-01-27T03:19:36.619Z,20.8
2019-01-27T03:20:46.509Z,20.82
2019-01-27T03:21:56.353Z,20.85
2019-01-27T03:23:05.991Z,20.76
2019-01-27T03:24:15.056Z,20.8
2019-01-27T03:25:24.203Z,20.79
2019-01-27T03:26:33.522Z,20.82
2019-01-27T03:27:42.555Z,20.85
2019-01-27T03:28:51.905Z,20.79
2019-01-27T03:30:01.307Z,20.82
2019-01-27T03:31:10.955Z,20.79
2019-01-27T03:32:20.389Z,20.82
2019-01-27T03:33:30.630Z,20.84
2019-01-27T03:34:40.011Z,20.69
2019-01-27T03:35:49.106Z,20.79
2019-01-27T03:36:58.501Z,20.8
2019-01-27T03:38:07.576Z,20.79
2019-01-27T03:39:16.854Z,20.77
2019-01-27T03:40:26.417Z,20.74
2019-01-27T03:41:35.751Z,20.79
2019-01-27T03:42:45.109Z,20.77
2019-01-27T03:43:54.358Z,20.76
2019-01-27T03:45:03.793Z,20.77
2019-01-27T03:46:12.893Z,20.72
2019-01-27T03:47:22.439Z,20.77
2019-01-27T03:48:32.023Z,20.82
2019-01-27T03:49:41.352Z,20.7
2019-01-27T03:50:50.513Z,20.69
2019-01-27T03:51:59.939Z,20.67
2019-01-27T03:53:09.754Z,20.7
2019-01-27T03:54:18.543Z,20.7
2019-01-27T03:55:27.923Z,20.72
2019-01-27T03:56:37.258Z,20.64
2019-01-27T03:57:46.651Z,20.67
2019-01-27T03:58:56.515Z,20.69
2019-01-27T04:00:05.771Z,20.69
2019-01-27T04:01:15.615Z,20.73
2019-01-27T04:02:24.632Z,20.73
2019-01-27T04:03:34.184Z,20.67
2019-01-27T04:04:43.438Z,20.67
2019-01-27T04:05:52.767Z,20.64
2019-01-27T04:07:02.039Z,20.67
2019-01-27T04:08:11.053Z,20.69
2019-01-27T04:09:20.879Z,20.67
2019-01-27T04:10:29.969Z,20.66
2019-01-27T04:11:39.592Z,20.66
2019-01-27T04:12:49.721Z,20.7
2019-01-27T04:13:59.267Z,20.72
2019-01-27T04:15:08.832Z,20.67
2019-01-27T04:16:18.642Z,20.7
2019-01-27T04:17:28.162Z,20.72
2019-01-27T04:18:37.802Z,20.69
2019-01-27T04:19:47.074Z,20.77
2019-01-27T04:20:56.449Z,20.67
2019-01-27T04:22:05.546Z,20.69
2019-01-27T04:23:14.599Z,20.69
2019-01-27T04:24:23.913Z,20.66
2019-01-27T04:25:33.245Z,20.69
2019-01-27T04:26:42.297Z,20.67
2019-01-27T04:27:51.586Z,20.73
2019-01-27T04:29:01.143Z,20.7
2019-01-27T04:30:10.480Z,20.7
2019-01-27T04:31:20.213Z,20.7
2019-01-27T04:32:29.729Z,20.7
2019-01-27T04:33:40.390Z,20.67
2019-01-27T04:34:49.811Z,20.66
2019-01-27T04:35:58.912Z,20.67
2019-01-27T04:37:07.955Z,20.62
2019-01-27T04:38:17.047Z,20.64
2019-01-27T04:39:26.373Z,20.66
2019-01-27T04:40:35.997Z,20.66
2019-01-27T04:41:45.136Z,20.57
2019-01-27T04:42:54.589Z,20.66
2019-01-27T04:44:04.112Z,20.64
2019-01-27T04:45:13.752Z,20.64
2019-01-27T04:46:23.239Z,20.62
2019-01-27T04:47:32.608Z,20.62
2019-01-27T04:48:41.739Z,20.66
2019-01-27T04:49:51.105Z,20.59
2019-01-27T04:51:00.474Z,20.59
2019-01-27T04:52:09.566Z,20.57
2019-01-27T04:53:19.493Z,20.62
2019-01-27T04:54:29.085Z,20.59
2019-01-27T04:55:38.801Z,20.59
2019-01-27T04:56:48.550Z,20.55
2019-01-27T04:57:58.129Z,20.55
2019-01-27T04:59:07.260Z,20.59
2019-01-27T05:00:17.238Z,20.57
2019-01-27T05:01:26.842Z,20.52
2019-01-27T05:02:35.921Z,20.54
2019-01-27T05:03:45.847Z,20.54
2019-01-27T05:04:55.187Z,20.59
2019-01-27T05:06:04.276Z,20.47
2019-01-27T05:07:13.595Z,20.57
2019-01-27T05:08:22.893Z,20.42
2019-01-27T05:09:32.014Z,20.39
2019-01-27T05:10:41.545Z,20.54
2019-01-27T05:11:51.364Z,20.55
2019-01-27T05:13:00.730Z,20.52
2019-01-27T05:14:10.130Z,20.52
2019-01-27T05:15:19.254Z,20.48
2019-01-27T05:16:28.507Z,20.5
2019-01-27T05:17:37.873Z,20.5
2019-01-27T05:18:47.539Z,20.48
2019-01-27T05:19:57.169Z,20.52
2019-01-27T05:21:07.054Z,20.52
2019-01-27T05:22:16.389Z,20.39
2019-01-27T05:23:25.716Z,20.47
2019-01-27T05:24:35.115Z,20.42
2019-01-27T05:25:45.342Z,20.47
2019-01-27T05:26:55.041Z,20.5
2019-01-27T05:28:04.569Z,20.47
2019-01-27T05:29:14.199Z,20.54
2019-01-27T05:30:23.622Z,20.5
2019-01-27T05:31:33.162Z,20.48
2019-01-27T05:32:42.377Z,20.48
2019-01-27T05:33:52.078Z,20.5
2019-01-27T05:35:01.548Z,20.51
2019-01-27T05:36:11.101Z,20.43
2019-01-27T05:37:20.943Z,20.48
2019-01-27T05:38:30.063Z,20.48
2019-01-27T05:39:39.696Z,20.5
2019-01-27T05:40:49.348Z,20.43
2019-01-27T05:41:58.237Z,20.43
2019-01-27T05:43:08.076Z,20.43
2019-01-27T05:44:17.711Z,20.47
2019-01-27T05:45:26.724Z,20.42
2019-01-27T05:46:36.050Z,20.41
2019-01-27T05:47:45.686Z,20.5
2019-01-27T05:48:55.627Z,20.42
2019-01-27T05:50:05.158Z,20.38
2019-01-27T05:51:14.479Z,20.39
2019-01-27T05:52:24.546Z,20.38
2019-01-27T05:53:33.863Z,20.41
2019-01-27T05:54:43.781Z,20.39
2019-01-27T05:55:53.187Z,20.43
2019-01-27T05:57:02.598Z,20.39
2019-01-27T05:58:11.934Z,20.41
2019-01-27T05:59:21.604Z,20.35
2019-01-27T06:00:30.961Z,20.41
2019-01-27T06:01:39.763Z,20.38
2019-01-27T06:02:48.757Z,20.35
2019-01-27T06:03:57.792Z,20.42
2019-01-27T06:05:06.839Z,20.39
2019-01-27T06:06:16.430Z,20.36
2019-01-27T06:07:26.016Z,20.35
2019-01-27T06:08:36.231Z,20.47
2019-01-27T06:09:45.647Z,20.42
2019-01-27T06:10:55.700Z,20.41
2019-01-27T06:12:05.027Z,20.35
2019-01-27T06:13:14.551Z,20.36
2019-01-27T06:14:23.656Z,20.38
2019-01-27T06:15:33.003Z,20.47
2019-01-27T06:16:42.425Z,20.39
2019-01-27T06:17:51.625Z,20.33
2019-01-27T06:19:01.350Z,20.42
2019-01-27T06:20:10.373Z,20.38
2019-01-27T06:21:19.598Z,20.39
2019-01-27T06:22:28.722Z,20.32
2019-01-27T06:23:38.333Z,20.41
2019-01-27T06:24:47.987Z,20.33
2019-01-27T06:25:57.834Z,20.41
2019-01-27T06:27:07.241Z,20.33
2019-01-27T06:28:16.783Z,20.42
2019-01-27T06:29:26.121Z,20.33
2019-01-27T06:30:35.534Z,20.38
2019-01-27T06:31:44.871Z,20.36
2019-01-27T06:32:54.036Z,20.39
2019-01-27T06:34:03.655Z,20.38
2019-01-27T06:35:13.018Z,20.35
2019-01-27T06:36:22.362Z,20.39
2019-01-27T06:37:31.968Z,20.35
2019-01-27T06:38:41.401Z,20.39
2019-01-27T06:39:50.962Z,20.39
2019-01-27T06:41:00.109Z,20.39
2019-01-27T06:42:09.586Z,20.41
2019-01-27T06:43:18.654Z,20.39
2019-01-27T06:44:27.582Z,20.35
2019-01-27T06:45:36.910Z,20.28
2019-01-27T06:46:46.633Z,20.32
2019-01-27T06:47:56.031Z,20.33
2019-01-27T06:49:05.343Z,20.36
2019-01-27T06:50:14.919Z,20.36
2019-01-27T06:51:24.000Z,20.39
2019-01-27T06:52:33.616Z,20.38
2019-01-27T06:53:42.980Z,20.33
2019-01-27T06:54:52.303Z,20.39
2019-01-27T06:56:01.406Z,20.39
2019-01-27T06:57:10.491Z,20.41
2019-01-27T06:58:19.444Z,20.33
2019-01-27T06:59:28.872Z,20.33
2019-01-27T07:00:38.425Z,20.33
2019-01-27T07:01:47.993Z,20.31
2019-01-27T07:02:57.870Z,20.33
2019-01-27T07:04:07.386Z,20.31
2019-01-27T07:05:16.416Z,20.36
2019-01-27T07:06:25.457Z,20.28
2019-01-27T07:07:34.952Z,20.35
2019-01-27T07:08:44.279Z,20.29
2019-01-27T07:09:53.637Z,20.31
2019-01-27T07:11:02.962Z,20.24
2019-01-27T07:12:12.593Z,20.29
2019-01-27T07:13:21.866Z,20.36
2019-01-27T07:14:31.636Z,20.24
2019-01-27T07:15:40.436Z,20.32
2019-01-27T07:16:49.749Z,20.29
2019-01-27T07:17:59.338Z,20.29
2019-01-27T07:19:08.402Z,20.2
2019-01-27T07:20:17.992Z,20.29
2019-01-27T07:21:27.578Z,20.18
2019-01-27T07:22:36.928Z,20.28
2019-01-27T07:23:46.052Z,20.18
2019-01-27T07:24:55.640Z,20.16
2019-01-27T07:26:04.736Z,20.29
2019-01-27T07:27:14.100Z,20.21
2019-01-27T07:28:23.251Z,20.21
2019-01-27T07:29:32.578Z,20.33
2019-01-27T07:30:42.520Z,20.18
2019-01-27T07:31:52.121Z,20.23
2019-01-27T07:33:01.894Z,20.17
2019-01-27T07:34:11.574Z,20.2
2019-01-27T07:35:21.355Z,20.18
2019-01-27T07:36:30.362Z,20.23
2019-01-27T07:37:39.714Z,20.23
2019-01-27T07:38:49.001Z,20.21
2019-01-27T07:39:58.831Z,20.16
2019-01-27T07:41:08.134Z,20.18
2019-01-27T07:42:17.442Z,20.24
2019-01-27T07:43:26.476Z,20.18
2019-01-27T07:44:35.215Z,20.2
2019-01-27T07:45:44.754Z,20.21
2019-01-27T07:46:54.374Z,20.16
2019-01-27T07:48:03.193Z,20.16
2019-01-27T07:49:12.717Z,20.2
2019-01-27T07:50:21.819Z,20.14
2019-01-27T07:51:31.859Z,20.14
2019-01-27T07:52:41.395Z,20.16
2019-01-27T07:53:50.147Z,20.14
2019-01-27T07:54:59.250Z,20.16
2019-01-27T07:56:08.562Z,20.18
2019-01-27T07:57:19.191Z,20.16
2019-01-27T07:58:28.478Z,20.2
2019-01-27T07:59:37.289Z,20.23
2019-01-27T08:00:46.598Z,20.2
2019-01-27T08:01:55.946Z,20.23
2019-01-27T08:03:11.717Z,20.23
2019-01-27T08:04:21.859Z,20.21
2019-01-27T08:05:30.847Z,20.24
2019-01-27T08:06:40.393Z,20.26
2019-01-27T08:07:50.012Z,20.17
2019-01-27T08:08:59.007Z,20.24
2019-01-27T08:10:08.113Z,20.17
2019-01-27T08:11:17.374Z,20.18
2019-01-27T08:12:26.426Z,20.21
2019-01-27T08:13:36.223Z,20.24
2019-01-27T08:14:46.308Z,20.21
2019-01-27T08:15:55.607Z,20.18
2019-01-27T08:17:05.820Z,20.24
2019-01-27T08:18:15.357Z,20.23
2019-01-27T08:19:24.662Z,20.2
2019-01-27T08:20:33.476Z,20.18
2019-01-27T08:21:42.538Z,20.16
2019-01-27T08:22:52.202Z,20.18
2019-01-27T08:24:01.798Z,20.2
2019-01-27T08:25:10.564Z,20.2
2019-01-27T08:26:19.901Z,20.23
2019-01-27T08:27:28.655Z,20.17
2019-01-27T08:28:38.487Z,20.17
2019-01-27T08:29:47.791Z,20.17
2019-01-27T08:30:57.537Z,20.13
2019-01-27T08:32:07.147Z,20.24
2019-01-27T08:33:16.636Z,20.13
2019-01-27T08:34:25.868Z,20.1
2019-01-27T08:35:35.138Z,20.18
2019-01-27T08:36:44.679Z,20.23
2019-01-27T08:37:53.595Z,20.06
2019-01-27T08:39:03.152Z,20.18
2019-01-27T08:40:12.251Z,20.13
2019-01-27T08:41:21.270Z,20.2
2019-01-27T08:42:31.214Z,20.14
2019-01-27T08:43:40.752Z,20.14
2019-01-27T08:44:50.515Z,20.1
2019-01-27T08:46:00.545Z,20.21
2019-01-27T08:47:09.567Z,20.16
2019-01-27T08:48:18.585Z,20.13
2019-01-27T08:49:27.610Z,20.1
2019-01-27T08:50:38.431Z,20.23
2019-01-27T08:51:48.272Z,20.16
2019-01-27T08:52:57.572Z,20.11
2019-01-27T08:54:06.609Z,20.17
2019-01-27T08:55:15.929Z,20.14
2019-01-27T08:56:25.770Z,20.1
2019-01-27T08:57:35.535Z,20.1
2019-01-27T08:58:44.838Z,20.13
2019-01-27T08:59:54.700Z,20.14
2019-01-27T09:01:04.255Z,20.21
2019-01-27T09:02:13.067Z,20.03
2019-01-27T09:03:22.677Z,20.21
2019-01-27T09:04:32.486Z,20.16
2019-01-27T09:05:41.797Z,20.21
2019-01-27T09:06:51.038Z,20.17
2019-01-27T09:08:00.800Z,20.11
2019-01-27T09:09:09.866Z,20.13
2019-01-27T09:10:19.125Z,20.08
2019-01-27T09:11:28.150Z,20.06
2019-01-27T09:12:37.778Z,20.16
2019-01-27T09:13:47.093Z,20.21
2019-01-27T09:14:56.675Z,20.08
2019-01-27T09:16:05.949Z,20.11
2019-01-27T09:17:15.749Z,20.08
2019-01-27T09:18:25.081Z,20.21
2019-01-27T09:19:34.365Z,20.08
2019-01-27T09:20:43.384Z,20.08
2019-01-27T09:21:52.657Z,20.16
2019-01-27T09:23:02.236Z,20.16
2019-01-27T09:24:11.487Z,20.06
2019-01-27T09:25:20.783Z,20.13
2019-01-27T09:26:29.833Z,20.11
2019-01-27T09:27:39.160Z,20.1
2019-01-27T09:28:48.671Z,20.13
2019-01-27T09:29:57.765Z,20.08
2019-01-27T09:31:06.856Z,20.06
2019-01-27T09:32:15.893Z,20.1
2019-01-27T09:33:25.957Z,20.1
2019-01-27T09:34:35.299Z,20.1
2019-01-27T09:35:44.614Z,20.02
2019-01-27T09:36:53.914Z,20.06
2019-01-27T09:38:03.058Z,20.16
2019-01-27T09:39:12.862Z,20.11
2019-01-27T09:40:21.875Z,20.16
2019-01-27T09:41:30.942Z,20.1
2019-01-27T09:42:42.059Z,20.1
2019-01-27T09:43:52.586Z,20.11
2019-01-27T09:45:01.878Z,20.17
2019-01-27T09:46:15.959Z,20.16
2019-01-27T09:47:25.582Z,20.06
2019-01-27T09:48:34.945Z,20.14
2019-01-27T09:49:44.463Z,20.06
2019-01-27T09:50:54.284Z,20.06
2019-01-27T09:52:04.074Z,20.11
2019-01-27T09:53:13.845Z,20.11
2019-01-27T09:54:22.882Z,20.06
2019-01-27T09:55:32.123Z,20.11
2019-01-27T09:56:41.166Z,20.06
2019-01-27T09:57:50.397Z,20.01
2019-01-27T09:59:00.071Z,20.06
2019-01-27T10:00:09.124Z,20.03
2019-01-27T10:01:18.418Z,20.08
2019-01-27T10:02:34.553Z,19.96
2019-01-27T10:03:44.635Z,19.99
2019-01-27T10:04:53.724Z,19.98
2019-01-27T10:06:03.142Z,19.99
2019-01-27T10:07:12.133Z,20.02
2019-01-27T10:08:20.855Z,20.02
2019-01-27T10:09:30.272Z,20.01
2019-01-27T10:10:39.791Z,19.98
2019-01-27T10:11:49.080Z,19.95
2019-01-27T10:12:58.641Z,19.99
2019-01-27T10:14:08.873Z,19.95
2019-01-27T10:15:18.395Z,19.99
2019-01-27T10:16:27.985Z,19.95
2019-01-27T10:17:37.283Z,19.95
2019-01-27T10:18:46.340Z,19.96
2019-01-27T10:19:55.699Z,20.05
2019-01-27T10:21:04.948Z,20.02
2019-01-27T10:22:14.229Z,20.11
2019-01-27T10:23:24.042Z,20.18
2019-01-27T10:24:34.126Z,20.24
2019-01-27T10:25:43.247Z,20.28
2019-01-27T10:26:53.070Z,20.32
2019-01-27T10:28:02.384Z,20.47
2019-01-27T10:29:12.822Z,20.42
2019-01-27T10:30:22.146Z,20.62
2019-01-27T10:31:31.955Z,20.67
2019-01-27T10:32:40.798Z,20.73
2019-01-27T10:33:50.093Z,20.79
2019-01-27T10:34:59.722Z,20.77
2019-01-27T10:36:09.323Z,20.8
2019-01-27T10:37:18.637Z,20.95
2019-01-27T10:38:27.928Z,21.03
2019-01-27T10:39:37.715Z,21.06
2019-01-27T10:40:46.868Z,21.1
2019-01-27T10:41:56.458Z,21.12
2019-01-27T10:43:06.373Z,21.19
2019-01-27T10:44:15.560Z,21.28
2019-01-27T10:45:24.670Z,21.31
2019-01-27T10:46:33.616Z,21.27
2019-01-27T10:47:43.396Z,21.42
2019-01-27T10:48:53.569Z,21.37
2019-01-27T10:50:03.163Z,21.4
2019-01-27T10:51:13.023Z,21.52
2019-01-27T10:52:22.714Z,21.56
2019-01-27T10:53:39.097Z,21.56
2019-01-27T10:54:48.732Z,21.54
2019-01-27T10:55:58.323Z,21.67
2019-01-27T10:57:07.696Z,21.71
2019-01-27T10:58:17.358Z,21.75
2019-01-27T10:59:26.479Z,21.74
2019-01-27T11:00:36.122Z,21.83
2019-01-27T11:01:45.969Z,21.69
2019-01-27T11:02:55.925Z,21.92
2019-01-27T11:04:05.535Z,21.83
2019-01-27T11:05:14.648Z,21.9
2019-01-27T11:06:24.183Z,21.92
2019-01-27T11:07:33.466Z,21.9
2019-01-27T11:08:43.028Z,21.92
2019-01-27T11:09:52.629Z,21.94
2019-01-27T11:11:02.948Z,21.86
2019-01-27T11:12:12.602Z,21.94
2019-01-27T11:13:21.715Z,21.98
2019-01-27T11:14:30.774Z,21.96
2019-01-27T11:15:40.379Z,21.98
2019-01-27T11:16:49.446Z,21.99
2019-01-27T11:17:59.026Z,21.98
2019-01-27T11:19:08.624Z,21.86
2019-01-27T11:20:17.944Z,21.9
2019-01-27T11:21:28.199Z,21.96
2019-01-27T11:22:37.762Z,21.96
2019-01-27T11:23:46.864Z,21.96
2019-01-27T11:24:57.047Z,22
2019-01-27T11:26:06.760Z,21.92
2019-01-27T11:27:16.057Z,22
2019-01-27T11:28:25.891Z,21.91
2019-01-27T11:29:35.526Z,22
2019-01-27T11:30:45.105Z,22.02
2019-01-27T11:31:54.345Z,22.05
2019-01-27T11:33:05.042Z,22.09
2019-01-27T11:34:14.700Z,22.07
2019-01-27T11:35:25.919Z,22.03
2019-01-27T11:36:34.852Z,22.14
2019-01-27T11:37:44.379Z,22.2
2019-01-27T11:38:53.810Z,22.17
2019-01-27T11:40:03.511Z,22.17
2019-01-27T11:41:12.626Z,22.28
2019-01-27T11:42:22.256Z,22.25
2019-01-27T11:43:32.963Z,22.3
2019-01-27T11:44:41.766Z,22.33
2019-01-27T11:45:51.260Z,22.31
2019-01-27T11:47:00.895Z,22.39
2019-01-27T11:48:10.320Z,22.39
2019-01-27T11:49:20.203Z,22.39
2019-01-27T11:50:29.521Z,22.46
2019-01-27T11:51:38.339Z,22.42
2019-01-27T11:52:47.441Z,22.37
2019-01-27T11:53:57.051Z,22.55
2019-01-27T11:55:06.890Z,22.54
2019-01-27T11:56:15.939Z,22.58
2019-01-27T11:57:25.334Z,22.55
2019-01-27T11:58:34.696Z,22.61
2019-01-27T11:59:44.223Z,22.62
2019-01-27T12:00:53.818Z,22.61
2019-01-27T12:02:03.461Z,22.64
2019-01-27T12:03:13.021Z,22.61
2019-01-27T12:04:22.337Z,22.65
2019-01-27T12:05:31.462Z,22.58
2019-01-27T12:06:41.193Z,22.57
2019-01-27T12:07:49.977Z,22.6
2019-01-27T12:08:59.034Z,22.58
2019-01-27T12:10:08.997Z,22.58
2019-01-27T12:11:18.599Z,22.6
2019-01-27T12:12:28.206Z,22.68
2019-01-27T12:13:37.625Z,22.67
2019-01-27T12:14:46.862Z,22.73
2019-01-27T12:15:56.588Z,22.75
2019-01-27T12:17:06.160Z,22.75
2019-01-27T12:18:15.760Z,22.67
2019-01-27T12:19:25.476Z,22.75
2019-01-27T12:20:34.852Z,22.7
2019-01-27T12:21:44.486Z,22.76
2019-01-27T12:22:54.398Z,22.86
2019-01-27T12:24:04.224Z,22.79
2019-01-27T12:25:14.204Z,22.82
2019-01-27T12:26:23.942Z,22.83
2019-01-27T12:27:33.365Z,22.82
2019-01-27T12:28:42.485Z,22.92
2019-01-27T12:29:52.228Z,22.9
2019-01-27T12:31:01.824Z,22.91
2019-01-27T12:32:11.711Z,22.9
2019-01-27T12:33:21.865Z,22.95
2019-01-27T12:34:31.429Z,23
2019-01-27T12:35:40.858Z,23
2019-01-27T12:36:50.524Z,23
2019-01-27T12:38:00.260Z,23.02
2019-01-27T12:39:09.995Z,23.05
2019-01-27T12:40:19.518Z,23.07
2019-01-27T12:41:28.954Z,23.05
2019-01-27T12:42:38.735Z,23.07
2019-01-27T12:43:48.118Z,23.13
2019-01-27T12:44:57.728Z,23.07
2019-01-27T12:46:07.116Z,23.17
2019-01-27T12:47:16.486Z,23.13
2019-01-27T12:48:27.908Z,23.17
2019-01-27T12:49:37.579Z,23.13
2019-01-27T12:50:46.737Z,23.23
2019-01-27T12:51:55.956Z,23.15
2019-01-27T12:53:05.686Z,23.19
2019-01-27T12:54:14.914Z,23.2
2019-01-27T12:55:24.725Z,23.22
2019-01-27T12:56:34.141Z,23.17
2019-01-27T12:57:43.354Z,23.19
2019-01-27T12:58:52.863Z,23.27
2019-01-27T13:00:02.462Z,23.2
2019-01-27T13:01:11.880Z,23.28
2019-01-27T13:02:20.805Z,23.31
2019-01-27T13:03:30.133Z,23.27
2019-01-27T13:04:39.756Z,23.22
2019-01-27T13:05:49.396Z,23.23
2019-01-27T13:06:59.125Z,23.28
2019-01-27T13:08:08.552Z,23.42
2019-01-27T13:09:18.439Z,23.35
2019-01-27T13:10:27.645Z,23.33
2019-01-27T13:11:36.928Z,23.38
2019-01-27T13:12:46.643Z,23.33
2019-01-27T13:13:55.966Z,23.32
2019-01-27T13:15:05.389Z,23.38
2019-01-27T13:16:15.085Z,23.36
2019-01-27T13:17:24.491Z,23.33
2019-01-27T13:18:34.185Z,23.43
2019-01-27T13:19:43.927Z,23.38
2019-01-27T13:20:58.988Z,23.35
2019-01-27T13:22:12.280Z,23.42
2019-01-27T13:23:21.459Z,23.43
2019-01-27T13:24:30.919Z,23.4
2019-01-27T13:25:40.642Z,23.4
2019-01-27T13:26:49.947Z,23.31
2019-01-27T13:27:59.369Z,23.38
2019-01-27T13:29:08.663Z,23.4
2019-01-27T13:30:17.731Z,23.36
2019-01-27T13:31:27.863Z,23.42
2019-01-27T13:32:37.179Z,23.46
2019-01-27T13:33:46.553Z,23.4
2019-01-27T13:34:58.749Z,23.43
2019-01-27T13:36:08.333Z,23.5
2019-01-27T13:37:18.338Z,23.51
2019-01-27T13:38:27.302Z,23.55
2019-01-27T13:39:37.055Z,23.5
2019-01-27T13:40:46.620Z,23.5
2019-01-27T13:41:56.909Z,23.55
2019-01-27T13:43:06.513Z,23.57
2019-01-27T13:44:15.829Z,23.57
2019-01-27T13:45:26.298Z,23.53
2019-01-27T13:46:35.776Z,23.55
2019-01-27T13:47:44.865Z,23.55
2019-01-27T13:48:54.192Z,23.54
2019-01-27T13:50:05.166Z,23.55
2019-01-27T13:51:16.226Z,23.58
2019-01-27T13:52:25.914Z,23.51
2019-01-27T13:53:35.078Z,23.58
2019-01-27T13:54:44.176Z,23.57
2019-01-27T13:55:53.289Z,23.57
2019-01-27T13:57:02.158Z,23.54
2019-01-27T13:58:12.861Z,23.69
2019-01-27T13:59:22.223Z,23.63
2019-01-27T14:00:31.415Z,23.7
2019-01-27T14:01:40.973Z,23.63
2019-01-27T14:02:50.119Z,23.65
2019-01-27T14:03:59.182Z,23.69
2019-01-27T14:05:08.745Z,23.68
2019-01-27T14:06:17.848Z,23.61
2019-01-27T14:07:27.395Z,23.7
2019-01-27T14:08:36.425Z,23.63
2019-01-27T14:09:46.254Z,23.68
2019-01-27T14:10:56.581Z,23.66
2019-01-27T14:12:06.436Z,23.72
2019-01-27T14:13:17.254Z,23.73
2019-01-27T14:14:27.544Z,23.72
2019-01-27T14:15:37.154Z,23.63
2019-01-27T14:16:48.191Z,23.79
2019-01-27T14:17:57.965Z,23.66
2019-01-27T14:19:07.670Z,23.72
2019-01-27T14:20:17.566Z,23.7
2019-01-27T14:21:27.049Z,23.79
2019-01-27T14:22:36.394Z,23.79
2019-01-27T14:23:45.426Z,23.7
2019-01-27T14:24:54.968Z,23.76
2019-01-27T14:26:04.383Z,23.73
2019-01-27T14:27:13.476Z,23.78
2019-01-27T14:28:22.516Z,23.83
2019-01-27T14:29:31.678Z,23.69
2019-01-27T14:30:40.481Z,23.88
2019-01-27T14:31:50.419Z,23.73
2019-01-27T14:33:00.129Z,23.65
2019-01-27T14:34:10.573Z,23.72
2019-01-27T14:35:20.099Z,23.78
2019-01-27T14:36:30.521Z,23.72
2019-01-27T14:37:39.793Z,23.63
2019-01-27T14:38:50.364Z,23.69
2019-01-27T14:40:00.298Z,23.65
2019-01-27T14:41:11.623Z,23.73
2019-01-27T14:42:21.389Z,23.8
2019-01-27T14:43:30.610Z,23.84
2019-01-27T14:44:40.537Z,23.78
2019-01-27T14:45:50.910Z,23.79
2019-01-27T14:47:00.654Z,23.8
2019-01-27T14:48:09.784Z,23.83
2019-01-27T14:49:19.202Z,23.85
2019-01-27T14:50:28.510Z,23.87
2019-01-27T14:51:39.372Z,23.83
2019-01-27T14:52:49.106Z,23.87
